Time;durP1;ratioP1;P1;durP2;ratioP2;P2;SDS_P1;SDS_P2;PMS_P1;PMS_P2;Temp;Humidity;BMP_temperature;BMP_pressure;BME280_temperature;BME280_humidity;BME280_pressure;Samples;Min_cycle;Max_cycle;Signal;HPM_P1;HPM_P2
2022/08/29 00:00:57;;;;;;;6.70;4.07;;;;;;;12.70;100.00;101052.25;4974367;28;20600;-82
2022/08/29 00:03:24;;;;;;;8.63;4.40;;;;;;;12.63;100.00;101063.88;4990748;28;20508;-81
2022/08/29 00:05:52;;;;;;;9.32;4.10;;;;;;;12.59;100.00;101065.72;4968734;28;20062;-81
2022/08/29 00:08:20;;;;;;;9.55;4.05;;;;;;;12.57;100.00;101064.88;4990675;28;20042;-81
2022/08/29 00:10:46;;;;;;;9.20;3.95;;;;;;;12.55;100.00;101060.53;4988399;28;20422;-81
2022/08/29 00:13:14;;;;;;;8.32;4.53;;;;;;;12.50;100.00;101067.69;4970176;28;20038;-81
2022/08/29 00:15:41;;;;;;;10.75;4.90;;;;;;;12.52;100.00;101064.09;4972873;28;20133;-81
2022/08/29 00:18:15;;;;;;;7.05;4.15;;;;;;;12.49;100.00;101063.31;4974767;28;20064;-81
2022/08/29 00:20:43;;;;;;;8.00;3.90;;;;;;;12.45;100.00;101065.16;4988999;28;20054;-81
2022/08/29 00:23:09;;;;;;;12.10;4.80;;;;;;;12.36;100.00;101058.28;4959267;28;20038;-82
2022/08/29 00:25:38;;;;;;;9.77;4.40;;;;;;;12.35;100.00;101059.16;4988589;28;20074;-81
2022/08/29 00:28:05;;;;;;;6.57;4.32;;;;;;;12.34;100.00;101049.47;4982498;28;20042;-81
2022/08/29 00:30:33;;;;;;;7.03;4.45;;;;;;;12.42;100.00;101056.41;4966012;28;20046;-81
2022/08/29 00:33:00;;;;;;;6.32;4.13;;;;;;;12.32;100.00;101061.03;4991325;28;20043;-82
2022/08/29 00:35:34;;;;;;;7.63;4.28;;;;;;;12.26;100.00;101066.44;4990584;28;20125;-81
2022/08/29 00:38:03;;;;;;;12.40;4.60;;;;;;;12.27;100.00;101073.47;4970339;28;20046;-81
2022/08/29 00:40:38;;;;;;;8.80;4.25;;;;;;;12.22;100.00;101070.94;4966382;28;20133;-81
2022/08/29 00:43:06;;;;;;;9.25;4.60;;;;;;;12.19;100.00;101071.03;4977108;28;20419;-79
2022/08/29 00:45:33;;;;;;;8.48;4.57;;;;;;;12.20;100.00;101059.50;4973894;28;20512;-81
2022/08/29 00:48:11;;;;;;;6.63;3.90;;;;;;;12.20;100.00;101061.28;4977005;28;20108;-81
2022/08/29 00:50:41;;;;;;;8.70;4.43;;;;;;;12.14;100.00;101067.56;4993076;28;20054;-82
2022/08/29 00:53:11;;;;;;;8.25;5.00;;;;;;;12.09;100.00;101072.09;4975333;28;20130;-80
2022/08/29 00:55:39;;;;;;;8.40;4.38;;;;;;;12.02;100.00;101071.34;4974349;28;20077;-82
2022/08/29 00:58:20;;;;;;;8.15;4.95;;;;;;;12.01;100.00;101076.66;4957381;28;20073;-82
2022/08/29 01:00:48;;;;;;;7.93;3.95;;;;;;;11.96;100.00;101070.59;4994145;28;20054;-82
2022/08/29 01:03:14;;;;;;;6.70;4.85;;;;;;;11.96;100.00;101068.81;5008129;28;20540;-82
2022/08/29 01:05:41;;;;;;;11.30;5.40;;;;;;;12.08;100.00;101073.00;4974578;28;20464;-82
2022/08/29 01:08:08;;;;;;;7.15;4.22;;;;;;;12.04;100.00;101068.69;4976416;28;20071;-82
2022/08/29 01:13:30;;;;;;;6.72;4.28;;;;;;;12.09;100.00;101066.78;4990968;28;20407;-84
2022/08/29 01:15:57;;;;;;;8.50;4.18;;;;;;;12.15;100.00;101065.81;4988658;28;20085;-81
2022/08/29 01:18:25;;;;;;;8.55;4.72;;;;;;;12.16;100.00;101068.41;4989281;28;20395;-81
2022/08/29 01:21:29;;;;;;;8.43;4.60;;;;;;;12.20;100.00;101062.16;4983028;28;20047;-82
2022/08/29 01:24:25;;;;;;;8.60;4.45;;;;;;;12.26;100.00;101067.31;4970224;28;20491;-82
2022/08/29 01:26:56;;;;;;;9.20;4.60;;;;;;;12.27;100.00;101066.41;4990878;28;20045;-83
2022/08/29 01:29:22;;;;;;;9.98;4.63;;;;;;;12.32;100.00;101063.66;4991572;28;20101;-83
2022/08/29 01:31:50;;;;;;;8.15;4.30;;;;;;;12.36;100.00;101060.94;4974460;28;20039;-81
2022/08/29 01:34:25;;;;;;;10.60;4.82;;;;;;;12.42;100.00;101065.22;4975023;28;20053;-81
2022/08/29 01:36:55;;;;;;;6.68;4.35;;;;;;;12.43;100.00;101064.31;4971176;28;20043;-82
2022/08/29 01:39:27;;;;;;;8.90;5.32;;;;;;;12.45;100.00;101061.66;4991331;28;20088;-81
2022/08/29 01:41:55;;;;;;;7.25;4.22;;;;;;;12.44;100.00;101065.19;4987142;28;20042;-81
2022/08/29 01:44:25;;;;;;;10.02;4.65;;;;;;;12.42;100.00;101067.00;4970857;28;20400;-82
2022/08/29 01:46:55;;;;;;;7.40;4.07;;;;;;;12.40;100.00;101067.03;4972292;28;20126;-82
2022/08/29 01:49:28;;;;;;;6.68;3.97;;;;;;;12.27;100.00;101071.69;4986364;28;20100;-82
2022/08/29 01:51:55;;;;;;;7.80;4.68;;;;;;;12.28;100.00;101068.19;4988932;28;20503;-81
2022/08/29 01:54:22;;;;;;;7.93;5.10;;;;;;;12.22;100.00;101070.94;4954289;28;20416;-82
2022/08/29 01:56:50;;;;;;;11.57;4.75;;;;;;;12.18;100.00;101079.84;4978951;28;20050;-84
2022/08/29 01:59:20;;;;;;;7.93;4.35;;;;;;;12.16;100.00;101086.09;4989470;28;20077;-83
2022/08/29 02:01:50;;;;;;;11.15;5.07;;;;;;;12.08;100.00;101078.28;4988684;28;20069;-81
2022/08/29 02:04:16;;;;;;;9.40;4.43;;;;;;;12.00;100.00;101080.22;4976961;28;20030;-82
2022/08/29 02:06:44;;;;;;;6.82;4.15;;;;;;;11.99;100.00;101086.41;4967471;28;20459;-82
2022/08/29 02:09:11;;;;;;;13.38;4.20;;;;;;;11.96;100.00;101081.19;4991920;28;20050;-81
2022/08/29 02:11:38;;;;;;;9.88;5.50;;;;;;;11.92;100.00;101082.13;4975247;28;20409;-82
2022/08/29 02:14:06;;;;;;;8.02;4.68;;;;;;;11.90;100.00;101086.59;4993480;28;20100;-82
2022/08/29 02:16:35;;;;;;;7.40;4.40;;;;;;;11.89;100.00;101082.22;4990344;28;20042;-81
2022/08/29 02:19:02;;;;;;;6.22;4.35;;;;;;;11.91;100.00;101086.56;4960664;28;20145;-84
2022/08/29 02:21:29;;;;;;;7.25;4.90;;;;;;;11.84;100.00;101079.63;5006952;28;20090;-82
2022/08/29 02:23:58;;;;;;;9.82;4.47;;;;;;;11.79;100.00;101078.84;4992057;28;21098;-84
2022/08/29 02:26:45;;;;;;;5.88;3.95;;;;;;;11.75;100.00;101085.94;4976581;28;20038;-84
2022/08/29 02:29:12;;;;;;;9.23;4.43;;;;;;;11.76;100.00;101081.50;4974178;28;20043;-84
2022/08/29 02:31:39;;;;;;;7.28;4.65;;;;;;;11.73;100.00;101084.22;4973783;28;20043;-83
2022/08/29 02:34:06;;;;;;;7.40;4.30;;;;;;;11.77;100.00;101085.91;4962163;28;20062;-83
2022/08/29 02:36:34;;;;;;;9.95;4.57;;;;;;;11.78;100.00;101087.69;4969454;28;20042;-83
2022/08/29 02:39:01;;;;;;;9.18;4.43;;;;;;;11.84;100.00;101090.22;4991457;28;20539;-82
2022/08/29 02:41:27;;;;;;;9.52;4.53;;;;;;;11.81;100.00;101091.16;4969905;28;20054;-82
2022/08/29 02:43:55;;;;;;;8.10;4.43;;;;;;;11.81;100.00;101090.28;4966644;28;20514;-84
2022/08/29 02:46:21;;;;;;;9.57;4.68;;;;;;;11.86;100.00;101090.22;4985391;28;20038;-82
2022/08/29 02:48:50;;;;;;;8.18;4.28;;;;;;;11.89;100.00;101084.84;4974511;28;20057;-85
2022/08/29 02:51:29;;;;;;;9.82;4.97;;;;;;;11.92;100.00;101085.66;4975098;28;20205;-84
2022/08/29 02:53:56;;;;;;;9.68;4.70;;;;;;;11.93;100.00;101087.41;4998746;28;20043;-82
2022/08/29 02:56:23;;;;;;;8.98;5.07;;;;;;;11.98;100.00;101090.84;4988937;28;20038;-82
2022/08/29 02:58:50;;;;;;;8.13;4.30;;;;;;;11.96;100.00;101087.34;4990734;28;20132;-83
2022/08/29 03:01:19;;;;;;;11.15;4.95;;;;;;;12.00;100.00;101082.88;4986782;28;20042;-83
2022/08/29 03:03:46;;;;;;;7.38;4.70;;;;;;;11.96;100.00;101081.19;4974346;28;20414;-82
2022/08/29 03:06:12;;;;;;;8.75;4.93;;;;;;;11.83;100.00;101088.47;4969576;28;20043;-83
2022/08/29 03:08:39;;;;;;;8.15;4.90;;;;;;;12.04;100.00;101089.84;4975609;28;20141;-83
2022/08/29 03:11:06;;;;;;;11.80;5.38;;;;;;;11.88;100.00;101093.69;4969945;28;20420;-81
2022/08/29 03:13:33;;;;;;;9.80;5.38;;;;;;;11.90;100.00;101084.81;4959748;28;20038;-82
2022/08/29 03:16:01;;;;;;;7.00;4.63;;;;;;;11.97;100.00;101090.88;4988663;28;20042;-82
2022/08/29 03:18:28;;;;;;;11.43;5.10;;;;;;;12.06;100.00;101080.09;4991218;28;20492;-81
2022/08/29 03:20:55;;;;;;;10.10;5.60;;;;;;;12.23;100.00;101080.63;4989590;28;20149;-83
2022/08/29 03:23:22;;;;;;;9.38;5.57;;;;;;;12.27;100.00;101082.28;4983627;28;20137;-81
2022/08/29 03:25:48;;;;;;;8.55;5.20;;;;;;;12.39;100.00;101076.75;4989630;28;20058;-82
2022/08/29 03:28:15;;;;;;;9.95;5.47;;;;;;;12.45;100.00;101080.19;4992233;28;20807;-83
2022/08/29 03:30:42;;;;;;;10.23;5.95;;;;;;;12.45;100.00;101072.25;4955389;28;20074;-80
2022/08/29 03:33:08;;;;;;;10.48;5.60;;;;;;;12.52;100.00;101077.34;4972803;28;20416;-82
2022/08/29 03:35:37;;;;;;;10.35;5.70;;;;;;;12.55;100.00;101066.69;5002855;28;20381;-81
2022/08/29 03:38:04;;;;;;;12.07;5.90;;;;;;;12.57;100.00;101070.19;4979553;28;20042;-81
2022/08/29 03:40:31;;;;;;;10.80;5.90;;;;;;;12.59;100.00;101063.06;4974788;28;20042;-81
2022/08/29 03:42:59;;;;;;;10.07;5.78;;;;;;;12.74;100.00;101067.16;4965757;28;20054;-82
2022/08/29 03:45:25;;;;;;;12.88;6.50;;;;;;;12.85;100.00;101058.94;4986691;28;20031;-82
2022/08/29 03:47:52;;;;;;;14.05;5.95;;;;;;;12.79;100.00;101061.75;4974326;28;20049;-82
2022/08/29 03:50:20;;;;;;;9.73;5.95;;;;;;;12.83;100.00;101066.94;4991450;28;20046;-84
2022/08/29 03:52:47;;;;;;;12.68;5.88;;;;;;;12.87;100.00;101063.31;4982529;28;20111;-81
2022/08/29 03:55:15;;;;;;;12.52;6.03;;;;;;;12.92;100.00;101061.41;4976608;28;20038;-82
2022/08/29 03:57:42;;;;;;;13.85;6.53;;;;;;;12.92;100.00;101060.53;4985202;28;20061;-82
2022/08/29 04:00:12;;;;;;;16.83;7.55;;;;;;;13.06;100.00;101063.75;4985783;28;20066;-83
2022/08/29 04:02:39;;;;;;;14.68;7.38;;;;;;;13.05;100.00;101063.78;4975152;28;20038;-81
2022/08/29 04:05:07;;;;;;;14.10;7.78;;;;;;;13.10;100.00;101061.88;4988430;28;20069;-84
2022/08/29 04:07:44;;;;;;;14.65;7.28;;;;;;;13.25;100.00;101064.19;4974555;28;20050;-81
2022/08/29 04:10:14;;;;;;;13.75;7.43;;;;;;;13.22;100.00;101064.28;4980070;28;20106;-82
2022/08/29 04:12:40;;;;;;;14.60;8.10;;;;;;;13.20;100.00;101066.97;4978177;28;20047;-81
2022/08/29 04:15:08;;;;;;;15.48;7.90;;;;;;;13.47;100.00;101070.72;4979922;28;20062;-81
2022/08/29 04:17:36;;;;;;;17.98;7.93;;;;;;;13.35;100.00;101073.66;4974885;28;20062;-82
2022/08/29 04:20:21;;;;;;;15.52;7.30;;;;;;;13.30;100.00;101082.66;5033629;23;21244;-83
2022/08/29 04:22:51;;;;;;;11.55;6.35;;;;;;;13.26;100.00;101084.50;5006829;28;20050;-83
2022/08/29 04:25:22;;;;;;;13.90;7.35;;;;;;;13.29;100.00;101078.28;5006931;28;20073;-84
2022/08/29 04:27:49;;;;;;;14.48;7.22;;;;;;;13.30;100.00;101080.00;4973854;28;20133;-84
2022/08/29 04:30:19;;;;;;;15.25;8.50;;;;;;;13.33;100.00;101079.94;4971352;28;20062;-83
2022/08/29 04:32:46;;;;;;;15.43;8.63;;;;;;;13.47;100.00;101077.81;4954918;28;20053;-83
2022/08/29 04:35:14;;;;;;;18.42;7.85;;;;;;;13.51;100.00;101082.97;4990968;28;20100;-83
2022/08/29 04:37:42;;;;;;;14.25;7.35;;;;;;;13.51;100.00;101085.63;4974043;28;20061;-82
2022/08/29 04:40:14;;;;;;;14.05;8.07;;;;;;;13.55;100.00;101089.09;4991488;28;20057;-83
2022/08/29 04:42:41;;;;;;;13.90;7.85;;;;;;;13.58;100.00;101090.78;5005849;28;20129;-83
2022/08/29 04:45:11;;;;;;;17.83;9.23;;;;;;;13.64;100.00;101093.28;4987979;28;20042;-84
2022/08/29 04:47:38;;;;;;;18.67;8.75;;;;;;;13.69;100.00;101096.69;4964955;28;20133;-83
2022/08/29 04:50:07;;;;;;;17.05;8.18;;;;;;;13.76;100.00;101087.66;4988597;28;20053;-83
2022/08/29 04:52:35;;;;;;;17.50;8.50;;;;;;;13.77;100.00;101084.06;4958233;28;20048;-83
2022/08/29 04:55:03;;;;;;;15.45;7.97;;;;;;;13.76;100.00;101087.66;4991535;28;20244;-83
2022/08/29 04:57:30;;;;;;;17.45;8.57;;;;;;;13.88;100.00;101083.81;4972741;28;20038;-83
2022/08/29 04:59:58;;;;;;;16.38;8.07;;;;;;;13.91;100.00;101081.94;4989875;28;20048;-84
2022/08/29 05:02:26;;;;;;;16.38;8.50;;;;;;;13.89;100.00;101090.84;4957932;28;20097;-84
2022/08/29 05:04:55;;;;;;;15.18;7.03;;;;;;;13.97;100.00;101087.06;4991138;28;20129;-83
2022/08/29 05:07:24;;;;;;;19.08;7.93;;;;;;;13.93;100.00;101090.72;4987875;28;20038;-83
2022/08/29 05:09:57;;;;;;;13.73;6.82;;;;;;;13.90;100.00;101090.81;4974592;28;20053;-84
2022/08/29 05:12:24;;;;;;;15.02;7.45;;;;;;;13.89;100.00;101083.75;4973642;28;20049;-85
2022/08/29 05:14:52;;;;;;;12.57;6.95;;;;;;;14.03;100.00;101080.69;4974433;28;20058;-83
2022/08/29 05:17:19;;;;;;;16.13;6.88;;;;;;;14.05;100.00;101078.91;4969805;28;20097;-83
2022/08/29 05:19:46;;;;;;;11.32;6.55;;;;;;;14.15;100.00;101096.31;4971271;28;20046;-83
2022/08/29 05:22:14;;;;;;;13.05;6.60;;;;;;;14.21;100.00;101092.59;4956494;28;20415;-82
2022/08/29 05:24:41;;;;;;;12.73;6.18;;;;;;;14.22;100.00;101097.03;4989602;28;20038;-83
2022/08/29 05:27:09;;;;;;;13.02;6.03;;;;;;;14.21;100.00;101100.56;4973249;28;20070;-82
2022/08/29 05:29:39;;;;;;;12.68;5.75;;;;;;;14.27;100.00;101093.28;4958759;28;20042;-83
2022/08/29 05:32:07;;;;;;;9.90;5.82;;;;;;;14.34;100.00;101092.22;4968941;28;20416;-82
2022/08/29 05:34:35;;;;;;;10.23;6.10;;;;;;;14.40;100.00;101100.94;4962293;28;20035;-82
2022/08/29 05:37:08;;;;;;;9.75;5.35;;;;;;;14.41;100.00;101092.91;4987530;28;20042;-83
2022/08/29 05:39:36;;;;;;;8.38;5.43;;;;;;;14.44;100.00;101099.91;4972341;28;20042;-83
2022/08/29 05:42:04;;;;;;;10.65;6.18;;;;;;;14.63;100.00;101095.84;4954195;28;20039;-83
2022/08/29 05:44:32;;;;;;;13.45;5.80;;;;;;;14.80;100.00;101098.84;4986494;28;20035;-84
2022/08/29 05:47:04;;;;;;;12.45;6.28;;;;;;;14.91;100.00;101088.75;4962325;28;20618;-83
2022/08/29 05:49:30;;;;;;;12.70;5.70;;;;;;;14.94;100.00;101095.75;4955583;28;20049;-83
2022/08/29 05:51:59;;;;;;;10.05;5.80;;;;;;;15.07;100.00;101099.78;4969335;28;20392;-82
2022/08/29 05:54:26;;;;;;;13.73;5.88;;;;;;;15.13;100.00;101094.25;4975062;28;20073;-82
2022/08/29 05:56:56;;;;;;;10.95;5.10;;;;;;;15.18;100.00;101094.97;4989389;28;20514;-83
2022/08/29 05:59:22;;;;;;;9.57;5.85;;;;;;;15.24;100.00;101096.56;4974749;28;20057;-83
2022/08/29 06:01:49;;;;;;;12.27;5.15;;;;;;;15.23;100.00;101096.63;4986150;28;20046;-83
2022/08/29 06:04:16;;;;;;;10.52;5.50;;;;;;;15.20;100.00;101101.09;4974283;28;20419;-82
2022/08/29 06:06:44;;;;;;;11.32;5.95;;;;;;;15.19;100.00;101096.69;4973236;28;20065;-84
2022/08/29 06:09:11;;;;;;;9.43;5.65;;;;;;;15.14;100.00;101106.66;4990141;28;20537;-83
2022/08/29 06:11:38;;;;;;;11.48;5.13;;;;;;;15.16;100.00;101120.75;4970351;28;20517;-83
2022/08/29 06:14:05;;;;;;;8.88;5.65;;;;;;;15.11;100.00;101106.72;4955058;28;20097;-83
2022/08/29 06:16:32;;;;;;;10.95;5.88;;;;;;;15.15;100.00;101116.38;4953736;28;20097;-83
2022/08/29 06:18:59;;;;;;;11.32;5.40;;;;;;;15.14;100.00;101117.28;4972695;28;20105;-83
2022/08/29 06:21:26;;;;;;;10.57;5.75;;;;;;;15.08;100.00;101121.94;4968800;28;20047;-83
2022/08/29 06:23:53;;;;;;;15.45;6.50;;;;;;;15.16;100.00;101120.75;4948910;28;20059;-83
2022/08/29 06:26:20;;;;;;;10.48;6.50;;;;;;;15.12;100.00;101116.44;4983160;28;20073;-84
2022/08/29 06:28:47;;;;;;;10.13;5.40;;;;;;;15.26;100.00;101120.47;4983795;28;20133;-81
2022/08/29 06:31:25;;;;;;;14.45;6.10;;;;;;;15.26;100.00;101117.81;4975611;28;20046;-81
2022/08/29 06:33:54;;;;;;;11.13;5.78;;;;;;;15.20;100.00;101113.53;4975790;28;20073;-83
2022/08/29 06:36:24;;;;;;;10.13;5.50;;;;;;;15.27;100.00;101112.44;4965965;28;20047;-82
2022/08/29 06:38:51;;;;;;;12.05;6.18;;;;;;;15.37;100.00;101119.19;4976358;28;20074;-82
2022/08/29 06:41:18;;;;;;;11.38;6.28;;;;;;;15.41;100.00;101115.50;4985448;28;20048;-80
2022/08/29 06:43:45;;;;;;;10.52;6.13;;;;;;;15.53;100.00;101126.66;4975569;28;20062;-82
2022/08/29 06:46:29;;;;;;;14.55;6.63;;;;;;;15.65;100.00;101124.50;4976005;28;20049;-82
2022/08/29 06:48:58;;;;;;;10.98;5.57;;;;;;;15.71;100.00;101123.41;4979625;28;20053;-81
2022/08/29 06:51:26;;;;;;;10.98;6.43;;;;;;;15.75;100.00;101125.94;4974430;28;20141;-81
2022/08/29 06:53:52;;;;;;;12.63;6.13;;;;;;;15.75;100.00;101122.41;4964223;28;20053;-81
2022/08/29 06:56:19;;;;;;;11.77;6.88;;;;;;;15.80;100.00;101124.88;4991080;28;20045;-81
2022/08/29 06:58:46;;;;;;;13.95;7.38;;;;;;;15.93;100.00;101135.06;4979018;28;20039;-83
2022/08/29 07:01:16;;;;;;;13.35;6.57;;;;;;;15.99;100.00;101144.66;4959006;28;20130;-80
2022/08/29 07:03:44;;;;;;;12.82;6.57;;;;;;;15.97;100.00;101138.47;4985619;28;20049;-81
2022/08/29 07:06:11;;;;;;;9.88;5.70;;;;;;;16.07;100.00;101134.59;5013269;28;20042;-82
2022/08/29 07:08:38;;;;;;;9.73;6.15;;;;;;;16.08;100.00;101146.13;4982303;28;20069;-80
2022/08/29 07:11:23;;;;;;;11.55;6.07;;;;;;;16.17;100.00;101130.66;4967116;28;20043;-81
2022/08/29 07:13:50;;;;;;;11.23;5.97;;;;;;;16.22;100.00;101133.16;4965341;28;20118;-81
2022/08/29 07:16:17;;;;;;;13.52;6.13;;;;;;;16.27;100.00;101134.72;5011817;28;20034;-81
2022/08/29 07:18:45;;;;;;;13.25;6.20;;;;;;;16.26;100.00;101138.34;4995490;28;20049;-80
2022/08/29 07:21:15;;;;;;;9.90;6.15;;;;;;;16.26;100.00;101132.13;4977053;28;20129;-80
2022/08/29 07:23:47;;;;;;;11.68;5.82;;;;;;;16.36;100.00;101136.19;4978821;28;20068;-80
2022/08/29 07:26:17;;;;;;;9.52;5.28;;;;;;;16.38;100.00;101138.81;4993315;28;20043;-79
2022/08/29 07:28:45;;;;;;;11.52;6.00;;;;;;;16.40;100.00;101145.84;4994583;28;20042;-80
2022/08/29 07:31:13;;;;;;;10.15;5.82;;;;;;;16.59;100.00;101149.56;4994577;28;20046;-79
2022/08/29 07:33:40;;;;;;;11.27;5.72;;;;;;;16.78;100.00;101139.06;4994954;28;20046;-81
2022/08/29 07:36:07;;;;;;;8.25;5.10;;;;;;;16.85;100.00;101148.59;4984730;28;20555;-80
2022/08/29 07:38:34;;;;;;;7.40;5.00;;;;;;;16.82;100.00;101138.03;4967139;28;20518;-80
2022/08/29 07:41:05;;;;;;;8.32;4.85;;;;;;;16.97;100.00;101141.03;4978626;28;20419;-81
2022/08/29 07:43:32;;;;;;;11.85;5.43;;;;;;;16.96;100.00;101140.16;4988324;28;20050;-80
2022/08/29 07:46:05;;;;;;;7.45;4.47;;;;;;;16.98;100.00;101143.63;4973858;28;20269;-80
2022/08/29 07:48:32;;;;;;;8.45;4.85;;;;;;;16.97;100.00;101144.56;5009664;28;20042;-80
2022/08/29 07:50:58;;;;;;;10.18;5.15;;;;;;;16.95;100.00;101150.91;4970583;28;20484;-80
2022/08/29 07:53:25;;;;;;;9.98;5.25;;;;;;;16.92;100.00;101146.56;4975064;28;20346;-81
2022/08/29 07:55:52;;;;;;;10.05;5.93;;;;;;;17.02;100.00;101155.06;4975426;28;20042;-83
2022/08/29 07:58:18;;;;;;;10.57;6.13;;;;;;;17.04;100.00;101161.22;4977416;28;20057;-84
2022/08/29 08:00:45;;;;;;;7.88;5.05;;;;;;;17.13;100.00;101163.50;4975340;28;20049;-83
2022/08/29 08:03:13;;;;;;;8.27;5.25;;;;;;;17.04;100.00;101170.09;4991404;28;20038;-81
2022/08/29 08:05:39;;;;;;;9.70;5.20;;;;;;;16.97;100.00;101168.59;4971021;28;20046;-82
2022/08/29 08:08:08;;;;;;;7.75;5.22;;;;;;;17.04;100.00;101175.44;4971642;28;20046;-83
2022/08/29 08:10:41;;;;;;;7.28;5.22;;;;;;;17.01;100.00;101167.56;4964688;28;20057;-83
2022/08/29 08:13:08;;;;;;;8.60;5.65;;;;;;;17.02;100.00;101163.94;4963598;28;20034;-82
2022/08/29 08:15:37;;;;;;;9.30;6.40;;;;;;;17.19;100.00;101165.94;4991109;28;20133;-83
2022/08/29 08:18:04;;;;;;;9.38;5.20;;;;;;;17.29;100.00;101180.66;4992719;28;20049;-83
2022/08/29 08:20:31;;;;;;;9.27;5.25;;;;;;;17.40;100.00;101182.91;4991369;28;20047;-85
2022/08/29 08:22:58;;;;;;;10.48;5.70;;;;;;;17.39;100.00;101176.69;4984379;28;20035;-83
2022/08/29 08:25:25;;;;;;;10.05;5.22;;;;;;;17.53;100.00;101170.78;4968831;28;20034;-83
2022/08/29 08:27:52;;;;;;;7.97;4.95;;;;;;;17.65;100.00;101182.75;4979073;28;20050;-80
2022/08/29 08:30:19;;;;;;;9.02;4.80;;;;;;;17.82;100.00;101185.63;4994333;23;20034;-81
2022/08/29 08:32:47;;;;;;;9.13;5.15;;;;;;;17.99;100.00;101183.16;4963775;28;20050;-80
2022/08/29 08:35:20;;;;;;;7.60;5.32;;;;;;;18.07;100.00;101182.78;4994403;28;20486;-80
2022/08/29 08:37:48;;;;;;;9.65;5.45;;;;;;;18.10;100.00;101185.34;4958907;28;20050;-79
2022/08/29 08:40:20;;;;;;;7.78;4.93;;;;;;;18.23;100.00;101188.34;4978056;28;20043;-80
2022/08/29 08:42:49;;;;;;;9.13;5.20;;;;;;;18.34;100.00;101186.09;4975658;28;20069;-80
2022/08/29 08:45:25;;;;;;;9.10;4.70;;;;;;;18.48;100.00;101185.44;5009471;28;20042;-79
2022/08/29 08:47:59;;;;;;;8.05;4.43;;;;;;;18.43;100.00;101188.34;5008011;28;20054;-79
2022/08/29 08:50:33;;;;;;;9.00;4.97;;;;;;;18.60;100.00;101184.06;5008798;28;20046;-79
2022/08/29 08:53:15;;;;;;;7.97;4.32;;;;;;;18.66;100.00;101187.31;4967006;28;20049;-80
2022/08/29 08:55:47;;;;;;;7.53;4.85;;;;;;;18.69;100.00;101189.88;4976267;28;20411;-80
2022/08/29 08:58:34;;;;;;;10.70;4.82;;;;;;;18.82;100.00;101191.03;4975226;28;20578;-81
2022/08/29 09:01:15;;;;;;;9.60;4.80;;;;;;;18.79;100.00;101187.63;4990869;28;20484;-80
2022/08/29 09:03:47;;;;;;;8.40;4.70;;;;;;;18.91;100.00;101196.91;4975764;28;20049;-81
2022/08/29 09:06:26;;;;;;;8.13;5.32;;;;;;;19.03;100.00;101183.81;4974410;28;20038;-80
2022/08/29 09:09:19;;;;;;;7.93;4.53;;;;;;;19.30;100.00;101181.63;4975616;28;20046;-80
2022/08/29 09:12:08;;;;;;;9.40;4.80;;;;;;;19.55;100.00;101183.09;4975074;28;20085;-81
2022/08/29 09:14:47;;;;;;;8.18;4.65;;;;;;;19.66;100.00;101178.09;4976295;28;20066;-80
2022/08/29 09:17:21;;;;;;;9.35;4.90;;;;;;;19.65;100.00;101181.72;4974232;28;20053;-80
2022/08/29 09:19:49;;;;;;;9.15;4.90;;;;;;;19.70;100.00;101184.19;5007979;28;20553;-81
2022/08/29 09:22:24;;;;;;;7.55;4.35;;;;;;;19.76;100.00;101183.88;4974510;28;20065;-81
2022/08/29 09:24:58;;;;;;;5.68;3.92;;;;;;;19.81;100.00;101182.72;4981809;28;20038;-80
2022/08/29 09:27:29;;;;;;;6.32;4.25;;;;;;;19.76;99.45;101181.19;4949639;28;20062;-81
2022/08/29 09:30:12;;;;;;;6.63;3.75;;;;;;;19.72;100.00;101182.31;4958063;28;20492;-81
2022/08/29 09:33:01;;;;;;;5.05;4.07;;;;;;;19.70;100.00;101178.84;4986907;28;20034;-80
2022/08/29 09:35:43;;;;;;;5.97;4.22;;;;;;;19.81;100.00;101180.03;4969096;28;20555;-81
2022/08/29 09:38:16;;;;;;;9.27;4.60;;;;;;;19.93;98.98;101181.22;4956948;28;20046;-81
2022/08/29 09:40:48;;;;;;;8.43;4.85;;;;;;;19.85;100.00;101188.78;4971582;28;20384;-81
2022/08/29 09:43:27;;;;;;;6.78;4.10;;;;;;;19.85;100.00;101183.44;4988524;28;20034;-79
2022/08/29 09:46:07;;;;;;;7.22;4.57;;;;;;;19.77;100.00;101186.50;4973564;28;20970;-81
2022/08/29 09:48:35;;;;;;;7.07;4.75;;;;;;;19.72;100.00;101187.66;4991918;28;20050;-80
2022/08/29 09:51:23;;;;;;;6.78;4.65;;;;;;;19.64;100.00;101190.72;4984062;28;20038;-81
2022/08/29 09:54:09;;;;;;;8.32;4.00;;;;;;;19.51;100.00;101187.78;4972215;28;20134;-81
2022/08/29 09:56:39;;;;;;;6.35;4.05;;;;;;;19.36;100.00;101200.09;4951182;28;20389;-80
2022/08/29 09:59:19;;;;;;;6.88;4.15;;;;;;;19.23;100.00;101198.94;4988236;28;20492;-80
2022/08/29 10:01:45;;;;;;;8.02;4.22;;;;;;;19.22;100.00;101194.53;4957357;28;20038;-80
2022/08/29 10:04:13;;;;;;;9.25;4.63;;;;;;;19.11;100.00;101208.44;4974672;28;20046;-81
2022/08/29 10:06:40;;;;;;;7.57;4.25;;;;;;;18.98;100.00;101203.72;4974225;28;20049;-82
2022/08/29 10:09:27;;;;;;;7.25;4.13;;;;;;;19.00;100.00;101204.50;4961998;28;20049;-81
2022/08/29 10:12:00;;;;;;;7.05;3.90;;;;;;;18.97;100.00;101210.88;4974256;28;20081;-81
2022/08/29 10:14:37;;;;;;;6.03;4.10;;;;;;;18.98;100.00;101203.72;4960517;28;20043;-82
2022/08/29 10:19:55;;;;;;;8.23;4.78;;;;;;;19.10;100.00;101206.69;4958703;28;20046;-81
2022/08/29 10:22:31;;;;;;;6.65;4.07;;;;;;;19.31;100.00;101203.94;4970516;28;20133;-79
2022/08/29 10:25:08;;;;;;;7.53;4.15;;;;;;;19.52;100.00;101200.22;4992018;23;20530;-82
2022/08/29 10:27:56;;;;;;;7.43;4.63;;;;;;;19.90;100.00;101194.78;4991778;28;20506;-82
2022/08/29 10:30:27;;;;;;;5.90;4.47;;;;;;;19.99;100.00;101204.16;5009496;28;20473;-82
2022/08/29 10:33:32;;;;;;;7.75;4.10;;;;;;;20.03;100.00;101211.13;4979681;28;20105;-82
2022/08/29 10:36:11;;;;;;;6.07;4.25;;;;;;;19.64;100.00;101217.53;5008757;28;20054;-81
2022/08/29 10:38:45;;;;;;;7.50;4.10;;;;;;;19.76;100.00;101203.53;4981011;28;20073;-82
2022/08/29 10:41:31;;;;;;;10.15;4.82;;;;;;;19.84;100.00;101214.75;4979658;28;20069;-81
2022/08/29 10:44:22;;;;;;;6.35;4.03;;;;;;;19.99;100.00;101214.91;5013126;28;20068;-81
2022/08/29 10:46:59;;;;;;;8.68;4.70;;;;;;;20.01;100.00;101213.00;4995961;28;20038;-80
2022/08/29 10:49:50;;;;;;;5.00;3.97;;;;;;;20.03;100.00;101217.34;4997087;28;20050;-82
2022/08/29 10:52:26;;;;;;;6.80;4.28;;;;;;;20.11;100.00;101216.97;5011868;28;20042;-81
2022/08/29 10:55:02;;;;;;;9.93;4.85;;;;;;;20.14;100.00;101212.31;5029131;28;20046;-82
2022/08/29 10:58:02;;;;;;;8.05;4.13;;;;;;;20.30;100.00;101206.16;4995175;28;20038;-82
2022/08/29 11:00:41;;;;;;;7.30;4.70;;;;;;;20.38;100.00;101210.16;4980008;28;20554;-81
2022/08/29 11:03:21;;;;;;;6.35;5.25;;;;;;;20.43;100.00;101209.91;4996780;28;20136;-82
2022/08/29 11:05:54;;;;;;;5.90;4.40;;;;;;;20.41;100.00;101211.81;5011208;28;20038;-82
2022/08/29 11:08:30;;;;;;;5.03;4.30;;;;;;;20.38;100.00;101206.63;4997026;28;20042;-82
2022/08/29 11:10:57;;;;;;;6.30;4.43;;;;;;;20.31;100.00;101213.25;4995281;28;20077;-82
2022/08/29 11:13:35;;;;;;;4.38;3.38;;;;;;;20.23;100.00;101216.31;4984856;28;20099;-79
2022/08/29 11:16:28;;;;;;;4.68;3.50;;;;;;;20.15;100.00;101219.41;4987055;28;20052;-80
2022/08/29 11:19:19;;;;;;;4.70;3.13;;;;;;;20.16;100.00;101223.81;5015623;28;20421;-79
2022/08/29 11:21:53;;;;;;;4.22;3.20;;;;;;;20.12;100.00;101218.69;4990469;28;20046;-79
2022/08/29 11:24:25;;;;;;;5.18;2.88;;;;;;;19.99;100.00;101213.06;5002853;28;20077;-80
2022/08/29 11:27:04;;;;;;;3.90;2.83;;;;;;;20.44;100.00;101212.56;4998042;28;20486;-79
2022/08/29 11:29:40;;;;;;;3.13;2.63;;;;;;;20.77;100.00;101214.41;5016454;28;20045;-80
2022/08/29 11:32:44;;;;;;;5.28;2.80;;;;;;;20.85;100.00;101208.59;4977703;28;20046;-80
2022/08/29 11:35:21;;;;;;;2.70;2.40;;;;;;;20.83;100.00;101213.19;4995785;28;20147;-80
2022/08/29 11:38:10;;;;;;;2.13;1.90;;;;;;;20.90;100.00;101210.09;5015290;28;20048;-82